Time;durP1;ratioP1;P1;durP2;ratioP2;P2;SDS_P1;SDS_P2;PMS_P1;PMS_P2;Temp;Humidity;BMP_temperature;BMP_pressure;BME280_temperature;BME280_humidity;BME280_pressure;Samples;Min_cycle;Max_cycle;Signal;HPM_P1;HPM_P2
2023/09/09 00:01:36;;;;;;;19.35;10.02;;;;;;;14.97;100.00;101012.19;5053871;28;20043;-85
2023/09/09 00:04:03;;;;;;;16.67;9.35;;;;;;;14.89;100.00;101015.91;5037266;28;20094;-85
2023/09/09 00:06:29;;;;;;;15.77;9.32;;;;;;;14.90;100.00;101008.63;5053518;28;20029;-85
2023/09/09 00:08:54;;;;;;;20.55;8.95;;;;;;;14.87;100.00;101009.00;5053075;28;20044;-85
2023/09/09 00:11:20;;;;;;;18.70;10.65;;;;;;;14.83;100.00;101010.47;5053705;28;20036;-85
2023/09/09 00:13:48;;;;;;;16.02;10.13;;;;;;;14.79;100.00;101006.44;5053394;28;20028;-85
2023/09/09 00:16:13;;;;;;;18.23;10.23;;;;;;;14.89;100.00;100998.81;5036993;28;20037;-85
2023/09/09 00:18:39;;;;;;;23.63;11.60;;;;;;;14.88;100.00;101006.13;5037294;28;20495;-85
2023/09/09 00:21:14;;;;;;;20.88;11.00;;;;;;;14.84;100.00;101001.28;5037363;28;20530;-84
2023/09/09 00:23:39;;;;;;;23.77;11.65;;;;;;;14.87;100.00;100999.03;5062672;28;20013;-83
2023/09/09 00:26:05;;;;;;;16.35;9.27;;;;;;;14.78;100.00;100994.78;5077769;28;20077;-84
2023/09/09 00:28:31;;;;;;;16.75;9.38;;;;;;;14.66;100.00;100991.81;5065445;28;20112;-85
2023/09/09 00:30:56;;;;;;;13.88;9.00;;;;;;;14.56;100.00;100976.94;5052948;28;20028;-85
2023/09/09 00:33:22;;;;;;;16.90;8.80;;;;;;;14.50;100.00;100979.38;5053170;28;20047;-86
2023/09/09 00:35:47;;;;;;;16.00;10.05;;;;;;;14.41;100.00;100985.13;5053099;28;20033;-85
2023/09/09 00:38:17;;;;;;;15.05;9.75;;;;;;;14.40;100.00;100983.47;5052939;28;20104;-84
2023/09/09 00:40:48;;;;;;;18.42;9.75;;;;;;;14.27;100.00;100976.06;5037103;28;20119;-87
2023/09/09 00:43:13;;;;;;;15.32;8.95;;;;;;;14.33;100.00;100986.09;5053107;28;20083;-85
2023/09/09 00:45:39;;;;;;;25.70;11.52;;;;;;;14.37;100.00;100992.78;5036500;28;20124;-85
2023/09/09 00:48:05;;;;;;;31.90;13.75;;;;;;;14.42;100.00;100990.34;5052836;28;20029;-85
2023/09/09 00:50:30;;;;;;;32.78;12.88;;;;;;;14.49;100.00;100991.22;5069593;28;20031;-85
2023/09/09 00:52:56;;;;;;;32.15;13.18;;;;;;;14.54;100.00;100992.53;5036234;28;20043;-86
2023/09/09 00:55:24;;;;;;;26.15;12.75;;;;;;;14.60;100.00;100991.75;5019804;28;20380;-85
2023/09/09 00:57:49;;;;;;;32.28;13.93;;;;;;;14.59;100.00;100992.78;5036570;28;20040;-86
2023/09/09 01:00:17;;;;;;;30.10;13.73;;;;;;;14.52;100.00;100995.41;5036526;28;20037;-85
2023/09/09 01:02:43;;;;;;;27.85;13.80;;;;;;;14.55;100.00;101002.31;5036422;28;20087;-86
2023/09/09 01:05:10;;;;;;;25.88;13.35;;;;;;;14.49;100.00;100990.38;5019745;28;20029;-86
2023/09/09 01:07:43;;;;;;;25.65;13.27;;;;;;;14.50;100.00;100990.19;5052006;28;20025;-86
2023/09/09 01:10:09;;;;;;;;;;;;;;;14.46;100.00;100991.63;5052928;28;20080;-87
2023/09/09 01:12:35;;;;;;;24.70;11.70;;;;;;;14.51;100.00;100991.88;5086124;28;20359;-84
2023/09/09 01:15:00;;;;;;;29.15;12.80;;;;;;;14.51;100.00;100982.91;5019525;28;20124;-85
2023/09/09 01:17:26;;;;;;;28.80;12.93;;;;;;;14.51;100.00;100985.63;5052406;28;20409;-87
2023/09/09 01:19:55;;;;;;;29.90;14.25;;;;;;;14.50;100.00;100982.09;5052410;28;20032;-85
2023/09/09 01:22:20;;;;;;;26.73;13.57;;;;;;;14.49;100.00;100980.41;5035883;28;20036;-86
2023/09/09 01:24:46;;;;;;;27.58;13.80;;;;;;;14.46;100.00;100986.19;5053565;28;20040;-85
2023/09/09 01:27:14;;;;;;;31.13;13.77;;;;;;;14.54;100.00;100987.97;5035737;28;20033;-86
2023/09/09 01:29:42;;;;;;;31.70;13.95;;;;;;;14.54;100.00;100984.44;5052328;28;20033;-84
2023/09/09 01:32:08;;;;;;;28.17;14.57;;;;;;;14.54;100.00;100984.44;5052406;28;20484;-84
2023/09/09 01:34:33;;;;;;;26.17;13.05;;;;;;;14.49;100.00;100985.81;5051983;28;20139;-84
2023/09/09 01:36:59;;;;;;;28.67;14.05;;;;;;;14.38;100.00;100986.34;5035894;28;20029;-84
2023/09/09 01:39:24;;;;;;;26.17;13.15;;;;;;;14.27;100.00;100984.19;5035607;28;20124;-85
2023/09/09 01:41:50;;;;;;;29.85;13.00;;;;;;;14.24;100.00;100985.41;5035617;28;20036;-83
2023/09/09 01:44:16;;;;;;;24.48;12.13;;;;;;;14.20;100.00;100980.56;5051999;28;20040;-84
2023/09/09 01:46:41;;;;;;;27.50;11.80;;;;;;;14.16;100.00;100984.72;5035373;28;20040;-84
2023/09/09 01:49:07;;;;;;;26.67;12.50;;;;;;;14.11;100.00;100982.56;5035406;28;20033;-84
2023/09/09 01:51:33;;;;;;;26.08;11.93;;;;;;;14.10;100.00;100978.19;5052870;28;20039;-85
2023/09/09 01:53:58;;;;;;;27.48;12.73;;;;;;;14.08;100.00;100972.97;5052158;28;20025;-84
2023/09/09 01:56:24;;;;;;;24.95;12.73;;;;;;;14.03;100.00;100974.59;5051929;28;20399;-85
2023/09/09 01:58:50;;;;;;;18.50;11.07;;;;;;;14.00;100.00;100972.28;5052128;28;20383;-85
2023/09/09 02:01:15;;;;;;;21.15;10.52;;;;;;;13.94;100.00;100973.88;5053207;28;20077;-84
2023/09/09 02:03:41;;;;;;;19.88;9.98;;;;;;;13.96;100.00;100974.50;5052924;28;20132;-85
2023/09/09 02:06:06;;;;;;;22.10;11.90;;;;;;;13.88;100.00;100963.84;5052129;28;20448;-84
2023/09/09 02:08:32;;;;;;;22.98;11.30;;;;;;;13.84;100.00;100959.84;5051445;28;20087;-83
2023/09/09 02:10:58;;;;;;;28.80;12.27;;;;;;;13.86;100.00;100965.88;5035342;28;20036;-84
2023/09/09 02:13:23;;;;;;;31.10;13.38;;;;;;;13.89;100.00;100962.78;5035388;28;20025;-86
2023/09/09 02:15:49;;;;;;;28.90;13.32;;;;;;;13.91;100.00;100962.59;5052184;28;20446;-83
2023/09/09 02:18:15;;;;;;;32.05;14.30;;;;;;;13.96;100.00;100968.28;5052030;28;20067;-85
2023/09/09 02:20:41;;;;;;;33.58;13.77;;;;;;;13.93;100.00;100955.97;5054114;28;20033;-83
2023/09/09 02:23:07;;;;;;;26.60;13.10;;;;;;;13.83;100.00;100961.69;5057128;28;20051;-83
2023/09/09 02:25:33;;;;;;;25.65;12.85;;;;;;;13.75;100.00;100966.41;5039065;28;20041;-84
2023/09/09 02:27:59;;;;;;;30.80;12.95;;;;;;;13.70;100.00;100969.66;5038845;28;20094;-84
2023/09/09 02:30:25;;;;;;;25.33;11.07;;;;;;;13.68;100.00;100968.19;5055360;28;20029;-84
2023/09/09 02:32:52;;;;;;;24.50;11.52;;;;;;;13.63;100.00;100964.19;5055229;28;20025;-83
2023/09/09 02:35:18;;;;;;;24.98;12.23;;;;;;;13.62;100.00;100959.81;5039076;28;20464;-84
2023/09/09 02:37:45;;;;;;;33.03;12.93;;;;;;;13.60;100.00;100961.88;5038783;28;20033;-86
2023/09/09 02:40:11;;;;;;;27.98;12.55;;;;;;;13.62;100.00;100962.50;5038967;28;20467;-86
2023/09/09 02:42:38;;;;;;;27.60;12.88;;;;;;;13.65;100.00;100961.28;5054970;28;20032;-84
2023/09/09 02:45:04;;;;;;;25.25;13.13;;;;;;;13.67;100.00;100956.53;5038700;28;20552;-86
2023/09/09 02:47:39;;;;;;;32.13;11.88;;;;;;;13.56;100.00;100957.88;5056872;28;20029;-84
2023/09/09 02:50:06;;;;;;;27.88;12.70;;;;;;;13.56;100.00;100962.44;5060190;28;20036;-82
2023/09/09 02:52:32;;;;;;;33.42;12.95;;;;;;;13.50;100.00;100963.22;5085981;28;20040;-82
2023/09/09 02:54:58;;;;;;;29.98;12.88;;;;;;;13.52;100.00;100962.00;5061887;28;20029;-83
2023/09/09 02:57:24;;;;;;;30.17;12.82;;;;;;;13.51;100.00;100965.72;5038472;28;20037;-86
2023/09/09 02:59:49;;;;;;;30.00;14.00;;;;;;;13.54;100.00;100959.09;5054852;28;20439;-84
2023/09/09 03:02:15;;;;;;;26.95;12.50;;;;;;;13.60;100.00;100961.03;5056080;28;20033;-83
2023/09/09 03:04:42;;;;;;;26.70;12.52;;;;;;;13.54;100.00;100962.63;5054869;28;20029;-83
2023/09/09 03:07:07;;;;;;;29.23;13.65;;;;;;;13.55;100.00;100958.91;5054912;28;20025;-84
2023/09/09 03:09:35;;;;;;;35.20;14.63;;;;;;;13.57;100.00;100954.13;5055640;28;20033;-84
2023/09/09 03:12:02;;;;;;;33.10;14.50;;;;;;;13.60;100.00;100955.63;5055656;28;20052;-84
2023/09/09 03:14:28;;;;;;;33.60;14.57;;;;;;;13.65;100.00;100961.28;5039091;28;20177;-83
2023/09/09 03:16:54;;;;;;;36.90;14.52;;;;;;;13.63;100.00;100964.19;5038132;28;20025;-84
2023/09/09 03:19:20;;;;;;;29.85;13.18;;;;;;;13.61;100.00;100960.84;5054430;28;20487;-84
2023/09/09 03:21:46;;;;;;;29.15;13.35;;;;;;;13.54;100.00;100954.53;5054347;28;20040;-86
2023/09/09 03:24:13;;;;;;;36.88;14.10;;;;;;;13.52;100.00;100958.44;5037526;28;20416;-83
2023/09/09 03:26:40;;;;;;;34.35;12.65;;;;;;;13.47;100.00;100959.03;5037816;28;20045;-84
2023/09/09 03:29:05;;;;;;;28.90;14.30;;;;;;;13.40;100.00;100955.41;5054492;28;20072;-84
2023/09/09 03:31:31;;;;;;;26.88;11.90;;;;;;;13.43;100.00;100955.03;5053257;28;20403;-84
2023/09/09 03:33:57;;;;;;;22.40;11.77;;;;;;;13.40;100.00;100945.44;5037701;28;20120;-85
2023/09/09 03:36:22;;;;;;;23.70;11.52;;;;;;;13.35;100.00;100949.75;5037528;28;20039;-84
2023/09/09 03:38:48;;;;;;;26.42;12.00;;;;;;;13.37;100.00;100953.91;5054240;28;20029;-84
2023/09/09 03:41:14;;;;;;;22.88;10.98;;;;;;;13.37;100.00;100953.91;5054032;28;20395;-85
2023/09/09 03:43:39;;;;;;;22.77;11.00;;;;;;;13.37;100.00;100942.28;5037260;28;20071;-84
2023/09/09 03:46:05;;;;;;;24.48;11.00;;;;;;;13.32;100.00;100950.94;5037422;28;20470;-83
2023/09/09 03:48:34;;;;;;;22.58;10.73;;;;;;;13.33;100.00;100954.47;5054014;28;20029;-85
2023/09/09 03:51:00;;;;;;;21.27;10.55;;;;;;;13.35;100.00;100955.13;5054069;28;20086;-83
2023/09/09 03:53:28;;;;;;;30.63;12.65;;;;;;;13.36;100.00;100948.69;5037184;28;20051;-86
2023/09/09 03:55:53;;;;;;;29.92;12.77;;;;;;;13.44;100.00;100953.97;5054128;28;20529;-85
2023/09/09 03:58:24;;;;;;;28.08;12.75;;;;;;;13.52;100.00;100953.91;5037585;28;20029;-85
2023/09/09 04:01:04;;;;;;;32.75;13.77;;;;;;;13.56;100.00;100957.88;5037483;28;20111;-83
2023/09/09 04:03:33;;;;;;;24.48;10.82;;;;;;;13.52;100.00;100955.75;5037811;28;20110;-82
2023/09/09 04:06:00;;;;;;;25.70;11.65;;;;;;;13.50;100.00;100957.81;5054465;28;20513;-84
2023/09/09 04:08:30;;;;;;;22.67;10.70;;;;;;;13.48;100.00;100965.28;5037285;28;20032;-84
2023/09/09 04:10:55;;;;;;;20.27;9.45;;;;;;;13.48;100.00;100960.69;5053537;28;20056;-84
2023/09/09 04:13:21;;;;;;;19.10;10.15;;;;;;;13.48;100.00;100958.00;5036949;28;20075;-84
2023/09/09 04:15:53;;;;;;;22.20;11.27;;;;;;;13.43;100.00;100946.91;5037124;28;20047;-84
2023/09/09 04:18:19;;;;;;;27.50;10.80;;;;;;;13.45;100.00;100946.75;5020675;28;20029;-83
2023/09/09 04:20:46;;;;;;;23.52;12.40;;;;;;;13.45;100.00;100950.28;5054808;28;20367;-84
2023/09/09 04:23:12;;;;;;;26.33;12.65;;;;;;;13.45;100.00;100944.03;5053545;28;20037;-83
2023/09/09 04:25:38;;;;;;;24.98;12.15;;;;;;;13.51;100.00;100941.41;5053454;28;20064;-83
2023/09/09 04:28:05;;;;;;;22.75;11.52;;;;;;;13.58;100.00;100941.50;5054242;28;20476;-85
2023/09/09 04:30:31;;;;;;;24.80;11.23;;;;;;;13.60;100.00;100942.13;5036562;28;20121;-85
2023/09/09 04:32:57;;;;;;;28.98;11.88;;;;;;;13.63;100.00;100942.59;5052347;28;20391;-85
2023/09/09 04:35:22;;;;;;;26.52;12.23;;;;;;;13.67;100.00;100945.72;5052715;28;20054;-84
2023/09/09 04:37:50;;;;;;;28.40;12.18;;;;;;;13.72;100.00;100940.59;5069487;28;20029;-84
2023/09/09 04:40:15;;;;;;;27.70;12.10;;;;;;;13.76;100.00;100941.03;5052877;28;20041;-84
2023/09/09 04:42:49;;;;;;;25.75;12.43;;;;;;;13.72;100.00;100937.06;5053207;28;20317;-84
2023/09/09 04:45:15;;;;;;;25.17;12.60;;;;;;;13.75;100.00;100942.06;5036593;28;20181;-85
2023/09/09 04:47:41;;;;;;;23.40;11.57;;;;;;;13.73;100.00;100947.66;5036450;28;20037;-85
2023/09/09 04:50:08;;;;;;;27.00;11.77;;;;;;;13.72;100.00;100943.28;5053785;28;20116;-84
2023/09/09 04:52:34;;;;;;;18.90;8.82;;;;;;;13.72;100.00;100947.88;5052677;28;20107;-84
2023/09/09 04:55:03;;;;;;;24.13;10.80;;;;;;;13.75;100.00;100944.78;5069177;28;20495;-84
2023/09/09 04:57:28;;;;;;;27.48;12.18;;;;;;;13.72;100.00;100943.28;5052783;28;20380;-84
2023/09/09 04:59:54;;;;;;;33.00;14.73;;;;;;;13.78;100.00;100944.38;5052834;28;20037;-85
2023/09/09 05:02:21;;;;;;;31.15;12.80;;;;;;;13.79;100.00;100946.91;5052715;28;20123;-85
2023/09/09 05:04:46;;;;;;;27.00;12.05;;;;;;;13.80;100.00;100942.34;5052606;28;20538;-85
2023/09/09 05:07:12;;;;;;;27.08;12.73;;;;;;;13.78;100.00;100952.50;5019332;28;20029;-84
2023/09/09 05:09:38;;;;;;;26.85;12.80;;;;;;;13.75;100.00;100952.88;5052511;28;20037;-84
2023/09/09 05:12:06;;;;;;;30.65;12.93;;;;;;;13.78;100.00;100955.19;5036100;28;20071;-84
2023/09/09 05:14:31;;;;;;;29.38;12.25;;;;;;;13.77;100.00;100950.84;5054297;28;20060;-85
2023/09/09 05:16:57;;;;;;;27.70;12.63;;;;;;;13.93;100.00;100957.84;5066990;28;20068;-84
2023/09/09 05:19:22;;;;;;;30.67;13.65;;;;;;;13.89;100.00;100951.16;5070809;28;20029;-87
2023/09/09 05:21:48;;;;;;;28.52;12.52;;;;;;;13.86;100.00;100957.78;5052894;28;20033;-84
2023/09/09 05:24:14;;;;;;;27.17;11.30;;;;;;;13.82;100.00;100948.41;5052494;28;20021;-85
2023/09/09 05:26:40;;;;;;;23.58;10.93;;;;;;;13.76;100.00;100950.00;5019295;28;20414;-85
2023/09/09 05:29:08;;;;;;;31.27;12.82;;;;;;;13.73;100.00;100944.13;5035322;28;20033;-85
2023/09/09 05:31:34;;;;;;;33.90;12.93;;;;;;;13.73;100.00;100949.53;5036014;28;20535;-86
2023/09/09 05:33:59;;;;;;;32.85;12.73;;;;;;;13.69;100.00;100957.19;5069017;28;20040;-84
2023/09/09 05:36:28;;;;;;;30.55;12.00;;;;;;;13.64;100.00;100952.34;5052344;28;20025;-84
2023/09/09 05:38:59;;;;;;;29.90;13.30;;;;;;;13.63;100.00;100953.41;5035920;28;20036;-85
2023/09/09 05:41:30;;;;;;;29.85;12.93;;;;;;;13.63;100.00;100953.41;5052472;28;20060;-84
2023/09/09 05:43:57;;;;;;;33.10;12.82;;;;;;;13.67;100.00;100955.72;5052142;28;20102;-84
2023/09/09 05:46:23;;;;;;;34.42;13.75;;;;;;;13.64;100.00;100960.47;5051859;28;20575;-85
2023/09/09 05:48:48;;;;;;;30.70;12.80;;;;;;;13.64;100.00;100955.06;5052126;28;20108;-84
2023/09/09 05:51:14;;;;;;;29.38;12.55;;;;;;;13.69;100.00;100957.19;5051873;28;20036;-84
2023/09/09 05:53:41;;;;;;;25.88;11.88;;;;;;;13.66;100.00;100965.69;5053053;28;20029;-83
2023/09/09 05:56:07;;;;;;;31.48;13.55;;;;;;;13.64;100.00;100968.56;5056402;28;20037;-83
2023/09/09 05:58:35;;;;;;;31.42;12.75;;;;;;;13.69;100.00;100964.47;5056261;28;20037;-85
2023/09/09 06:01:02;;;;;;;33.25;12.68;;;;;;;13.68;100.00;100968.19;5039363;28;20033;-84
2023/09/09 06:03:31;;;;;;;26.65;11.50;;;;;;;13.63;100.00;100974.19;5023551;28;20037;-83
2023/09/09 06:05:58;;;;;;;26.63;11.98;;;;;;;13.55;100.00;100977.81;5056416;28;20072;-85
2023/09/09 06:08:23;;;;;;;28.58;11.93;;;;;;;13.53;100.00;100981.75;5021447;28;20037;-84
2023/09/09 06:10:50;;;;;;;26.88;12.15;;;;;;;13.52;100.00;100978.22;5041414;28;20033;-83
2023/09/09 06:13:16;;;;;;;32.70;12.18;;;;;;;13.55;100.00;100977.00;5073223;28;20035;-82
2023/09/09 06:15:42;;;;;;;30.48;12.50;;;;;;;13.54;100.00;100978.84;5069883;28;20123;-84
2023/09/09 06:18:07;;;;;;;39.97;13.45;;;;;;;13.67;100.00;100969.22;5055926;28;20048;-84
2023/09/09 06:20:33;;;;;;;31.70;12.73;;;;;;;13.69;100.00;100975.28;5039220;28;20037;-84
2023/09/09 06:22:58;;;;;;;48.03;15.98;;;;;;;13.73;100.00;100971.16;5039380;28;20036;-84
2023/09/09 06:25:24;;;;;;;38.50;14.93;;;;;;;13.77;100.00;100969.75;5056441;28;20048;-84
2023/09/09 06:27:50;;;;;;;42.30;14.52;;;;;;;14.01;100.00;100982.88;5038213;28;20080;-85
2023/09/09 06:30:15;;;;;;;39.05;14.18;;;;;;;14.16;100.00;100973.88;5054980;28;20037;-84
2023/09/09 06:32:42;;;;;;;34.92;13.35;;;;;;;14.26;100.00;100985.19;5038654;28;20033;-85
2023/09/09 06:35:08;;;;;;;34.50;14.02;;;;;;;14.32;100.00;100984.44;5055848;28;20518;-86
2023/09/09 06:37:34;;;;;;;45.85;14.93;;;;;;;14.32;100.00;100984.44;5055202;28;20045;-86
2023/09/09 06:40:02;;;;;;;37.15;13.57;;;;;;;14.38;100.00;100978.22;5072039;28;20032;-87
2023/09/09 06:42:28;;;;;;;43.40;13.85;;;;;;;14.45;100.00;100981.84;5055623;28;20025;-88
2023/09/09 06:44:54;;;;;;;26.38;11.90;;;;;;;14.48;100.00;100983.31;5054544;28;20036;-85
2023/09/09 06:47:19;;;;;;;26.27;11.35;;;;;;;14.49;100.00;100980.41;5053115;28;20033;-85
2023/09/09 06:49:45;;;;;;;29.05;11.93;;;;;;;14.58;100.00;100993.81;5054454;28;20062;-85
2023/09/09 06:52:10;;;;;;;27.73;11.73;;;;;;;14.72;100.00;100992.88;5036697;28;20054;-86
2023/09/09 06:54:36;;;;;;;26.35;11.73;;;;;;;14.84;100.00;100983.16;5053433;28;20116;-85
2023/09/09 06:57:01;;;;;;;27.48;11.52;;;;;;;15.01;100.00;100986.41;5054671;28;20037;-88
2023/09/09 06:59:28;;;;;;;30.27;12.52;;;;;;;15.27;100.00;100984.84;5071823;28;20086;-87
2023/09/09 07:01:54;;;;;;;30.67;12.85;;;;;;;15.53;100.00;100985.00;5038751;28;20044;-86
2023/09/09 07:04:19;;;;;;;31.73;13.10;;;;;;;15.80;100.00;100985.13;5054447;28;20033;-84
2023/09/09 07:06:45;;;;;;;39.33;14.50;;;;;;;16.01;100.00;100992.25;5053765;28;20037;-85
2023/09/09 07:09:11;;;;;;;35.38;14.82;;;;;;;16.24;100.00;100983.72;5038416;28;20051;-86
2023/09/09 07:11:38;;;;;;;31.25;13.25;;;;;;;16.44;100.00;100992.69;5038136;28;20063;-85
2023/09/09 07:14:04;;;;;;;29.48;12.90;;;;;;;16.66;100.00;100987.88;5054336;28;20044;-86
2023/09/09 07:16:31;;;;;;;27.30;13.20;;;;;;;16.86;100.00;100984.34;5053934;28;20028;-71
2023/09/09 07:18:57;;;;;;;26.98;13.35;;;;;;;17.09;100.00;100987.44;5055144;28;20468;-73
2023/09/09 07:21:23;;;;;;;25.67;12.80;;;;;;;17.44;100.00;100999.81;5037344;28;20048;-73
2023/09/09 07:23:49;;;;;;;20.67;10.80;;;;;;;17.85;100.00;101001.34;5037480;28;20422;-74
2023/09/09 07:26:15;;;;;;;22.50;11.68;;;;;;;18.32;100.00;100994.56;5037505;28;20127;-74
2023/09/09 07:28:40;;;;;;;20.77;10.60;;;;;;;18.24;100.00;100997.53;5037533;28;20039;-74
2023/09/09 07:31:06;;;;;;;13.68;9.85;;;;;;;18.53;100.00;100992.50;5037462;28;20035;-74
2023/09/09 07:33:36;;;;;;;18.35;10.10;;;;;;;19.00;100.00;100995.63;5054589;28;20060;-75
2023/09/09 07:36:02;;;;;;;13.90;9.18;;;;;;;19.09;100.00;100992.38;5037822;28;20041;-77
2023/09/09 07:38:27;;;;;;;12.45;8.68;;;;;;;19.89;100.00;101002.31;5069963;28;20074;-74
2023/09/09 07:41:01;;;;;;;10.45;7.60;;;;;;;20.07;100.00;100989.69;5054093;28;20029;-74
2023/09/09 07:43:27;;;;;;;11.10;7.00;;;;;;;20.73;100.00;101005.03;5038047;28;20118;-74
2023/09/09 07:45:54;;;;;;;12.27;7.88;;;;;;;21.92;100.00;100998.25;5054160;28;20523;-75
2023/09/09 07:48:20;;;;;;;11.50;6.10;;;;;;;22.90;100.00;101009.78;5037377;28;20032;-74
2023/09/09 07:50:54;;;;;;;8.30;5.63;;;;;;;23.47;100.00;101008.63;5053753;28;20037;-75
2023/09/09 07:53:20;;;;;;;10.65;6.18;;;;;;;23.86;100.00;101016.81;5070589;28;20140;-75
2023/09/09 07:55:49;;;;;;;8.88;5.80;;;;;;;24.18;100.00;101008.59;5037081;28;20056;-74
2023/09/09 07:58:16;;;;;;;10.10;5.85;;;;;;;24.42;100.00;101017.34;5020610;28;20189;-75
2023/09/09 08:00:43;;;;;;;8.55;5.80;;;;;;;24.50;100.00;101016.88;5053302;28;20511;-75
2023/09/09 08:03:10;;;;;;;7.30;5.32;;;;;;;24.72;100.00;101014.03;5070210;28;20044;-74
2023/09/09 08:05:40;;;;;;;8.50;5.30;;;;;;;24.88;100.00;101014.97;5053264;28;20027;-95
2023/09/09 08:08:06;;;;;;;7.55;5.03;;;;;;;24.97;100.00;101012.53;5055021;28;20379;-93
2023/09/09 08:10:36;;;;;;;5.68;4.90;;;;;;;25.12;100.00;101009.06;5054816;28;20037;-94
2023/09/09 08:13:02;;;;;;;7.65;5.18;;;;;;;25.34;100.00;101009.75;5056127;28;20117;-94
2023/09/09 08:15:27;;;;;;;7.40;4.85;;;;;;;25.61;100.00;101008.75;5038747;28;20069;-93
2023/09/09 08:17:53;;;;;;;8.38;4.70;;;;;;;25.76;100.00;101010.72;5057513;28;20478;-94
2023/09/09 08:20:19;;;;;;;6.60;5.28;;;;;;;25.91;100.00;101004.44;5038073;28;20381;-94
2023/09/09 08:22:45;;;;;;;7.25;4.90;;;;;;;26.07;100.00;101000.63;5055144;28;20045;-96
2023/09/09 08:25:14;;;;;;;6.05;5.03;;;;;;;26.10;100.00;101003.66;5055282;28;20064;-92
2023/09/09 08:27:41;;;;;;;8.15;4.75;;;;;;;26.20;100.00;101015.81;5055880;28;20564;-93
2023/09/09 08:30:08;;;;;;;7.40;4.85;;;;;;;26.40;100.00;101015.81;5054570;28;20025;-94
2023/09/09 08:32:38;;;;;;;5.38;4.22;;;;;;;26.40;100.00;101006.72;5037722;28;20029;-93
2023/09/09 08:35:05;;;;;;;7.53;4.85;;;;;;;26.38;100.00;101015.25;5038348;28;20029;-93
2023/09/09 08:37:31;;;;;;;7.32;4.78;;;;;;;26.44;100.00;101013.34;5054206;28;20033;-93
2023/09/09 08:39:57;;;;;;;6.80;4.10;;;;;;;26.49;100.00;101010.59;5054351;28;20036;-92
2023/09/09 08:42:31;;;;;;;7.45;4.60;;;;;;;26.74;98.45;101005.06;5054349;28;20464;-92
2023/09/09 08:45:05;;;;;;;7.65;4.40;;;;;;;26.94;96.39;101009.72;5055620;28;20029;-92
2023/09/09 08:47:35;;;;;;;7.45;4.45;;;;;;;27.15;97.00;101018.78;5037769;28;20036;-92
2023/09/09 08:50:04;;;;;;;9.75;5.05;;;;;;;27.40;92.59;101011.53;5038208;28;20033;-91
2023/09/09 08:52:30;;;;;;;6.20;4.47;;;;;;;27.31;88.94;101013.22;5039540;28;20033;-92
2023/09/09 08:54:57;;;;;;;7.70;4.80;;;;;;;27.32;89.28;101018.47;5056295;28;20021;-93
2023/09/09 08:57:25;;;;;;;6.80;4.70;;;;;;;27.49;88.26;101017.28;5038145;28;20127;-92
2023/09/09 08:59:51;;;;;;;8.63;4.70;;;;;;;27.78;87.57;101017.41;5054614;28;20040;-93
2023/09/09 09:02:16;;;;;;;6.82;4.60;;;;;;;27.88;83.33;101024.88;5053994;28;20021;-93
2023/09/09 09:04:42;;;;;;;5.75;4.10;;;;;;;27.69;83.44;101021.91;5087663;28;20044;-96
2023/09/09 09:07:08;;;;;;;5.78;4.30;;;;;;;27.63;82.83;101021.94;5037395;28;20067;-92
2023/09/09 09:09:34;;;;;;;8.25;4.70;;;;;;;27.71;82.57;101017.75;5054191;28;20391;-93
2023/09/09 09:12:01;;;;;;;9.73;4.40;;;;;;;27.89;81.35;101019.06;5054610;28;20571;-92
2023/09/09 09:14:27;;;;;;;6.45;4.07;;;;;;;27.94;79.54;101023.72;5036906;28;20041;-92
2023/09/09 09:16:54;;;;;;;10.43;4.65;;;;;;;28.27;78.77;101025.69;5053968;28;20043;-93
2023/09/09 09:19:28;;;;;;;7.40;4.88;;;;;;;28.57;76.86;101023.00;5053958;28;20068;-94
2023/09/09 09:21:54;;;;;;;8.07;4.75;;;;;;;28.73;75.13;101020.91;5037071;28;20036;-94
2023/09/09 09:24:24;;;;;;;8.73;4.55;;;;;;;28.74;72.79;101017.03;5056026;28;20025;-95
2023/09/09 09:26:49;;;;;;;5.97;4.65;;;;;;;28.27;73.51;101008.28;5037201;28;20037;-94
2023/09/09 09:29:15;;;;;;;7.07;4.60;;;;;;;28.16;74.69;101012.25;5053065;28;20029;-94
2023/09/09 09:31:41;;;;;;;6.50;4.88;;;;;;;28.35;73.74;101012.38;5054055;28;20060;-92
2023/09/09 09:34:12;;;;;;;6.50;4.65;;;;;;;28.76;71.74;101023.91;5054367;28;20441;-93
2023/09/09 09:36:39;;;;;;;7.30;4.38;;;;;;;28.65;72.31;101022.38;5057245;28;20108;-93
2023/09/09 09:39:09;;;;;;;8.82;4.72;;;;;;;28.85;69.31;101030.50;5054119;28;20547;-94
2023/09/09 09:41:38;;;;;;;7.72;4.57;;;;;;;28.96;66.53;101033.97;5053782;28;20033;-92
2023/09/09 09:44:05;;;;;;;8.07;4.93;;;;;;;27.98;70.42;101030.34;5054099;28;20029;-95
2023/09/09 09:46:31;;;;;;;6.88;4.60;;;;;;;27.71;72.75;101027.97;5036618;28;20044;-92
2023/09/09 09:49:10;;;;;;;6.25;4.10;;;;;;;27.57;73.23;101028.59;5086828;28;20029;-91
2023/09/09 09:51:56;;;;;;;9.38;4.28;;;;;;;26.55;77.10;101028.81;5039978;28;20131;-92
2023/09/09 09:54:22;;;;;;;9.38;4.60;;;;;;;27.08;75.28;101025.69;5053572;28;20082;-92
2023/09/09 09:56:48;;;;;;;7.28;4.60;;;;;;;28.09;70.80;101018.09;5053969;28;20099;-92
2023/09/09 09:59:13;;;;;;;6.47;4.30;;;;;;;27.69;70.92;101011.69;5053819;28;20037;-91
2023/09/09 10:01:39;;;;;;;8.32;4.50;;;;;;;28.11;69.73;101015.06;5058802;28;20026;-92
2023/09/09 10:04:12;;;;;;;6.65;4.35;;;;;;;27.93;70.54;101014.59;5066041;28;20452;-92
2023/09/09 10:06:39;;;;;;;6.45;4.43;;;;;;;27.12;74.57;101016.56;5076899;28;20056;-93
2023/09/09 10:09:38;;;;;;;8.13;4.55;;;;;;;26.63;77.56;101013.63;5070600;28;20507;-92
2023/09/09 10:12:13;;;;;;;6.45;4.93;;;;;;;25.76;82.38;101011.56;5053207;28;20045;-95
2023/09/09 10:14:39;;;;;;;6.60;5.13;;;;;;;25.65;83.80;101012.63;5053705;28;20028;-92
2023/09/09 10:17:07;;;;;;;7.38;5.07;;;;;;;25.61;84.20;101006.00;5053476;28;20098;-93
2023/09/09 10:19:36;;;;;;;7.93;5.15;;;;;;;27.11;77.41;101006.63;5037351;28;20052;-92
2023/09/09 10:22:06;;;;;;;6.70;4.97;;;;;;;27.01;76.61;101009.41;5053760;28;20033;-92
2023/09/09 10:24:35;;;;;;;8.57;4.90;;;;;;;26.63;78.72;101002.59;5054170;28;20033;-94
2023/09/09 10:27:03;;;;;;;8.98;4.75;;;;;;;25.58;84.14;101003.78;5053338;28;20083;-93
2023/09/09 10:29:30;;;;;;;8.05;5.05;;;;;;;26.13;81.96;100999.53;5052908;28;20029;-93
2023/09/09 10:32:00;;;;;;;6.38;4.88;;;;;;;25.97;82.68;101014.41;5053541;28;20116;-93
2023/09/09 10:34:26;;;;;;;7.43;4.97;;;;;;;25.80;84.62;101004.41;5053299;28;20086;-94
2023/09/09 10:36:53;;;;;;;8.32;5.38;;;;;;;25.29;87.38;101008.91;5054206;28;20029;-92
2023/09/09 10:39:22;;;;;;;8.02;5.03;;;;;;;24.94;89.62;101002.91;5021693;28;20040;-92
2023/09/09 10:41:48;;;;;;;9.75;5.40;;;;;;;25.00;89.60;101001.84;5053842;28;20033;-91
2023/09/09 10:44:15;;;;;;;8.05;5.20;;;;;;;25.52;86.32;101008.44;5086917;28;20040;-91
2023/09/09 10:46:41;;;;;;;6.55;4.60;;;;;;;25.23;87.15;101008.06;5054933;28;20056;-91
2023/09/09 10:49:07;;;;;;;6.82;4.97;;;;;;;25.14;88.05;101010.47;5067860;28;20471;-92
2023/09/09 10:51:48;;;;;;;8.52;5.03;;;;;;;25.02;88.27;101010.66;5057152;28;20207;-93
2023/09/09 10:54:15;;;;;;;6.82;4.63;;;;;;;24.73;90.37;101006.63;5046162;28;20429;-93
2023/09/09 10:56:46;;;;;;;11.00;5.22;;;;;;;24.56;92.35;101010.34;5042878;28;20032;-91
2023/09/09 10:59:19;;;;;;;8.45;5.05;;;;;;;24.54;93.79;101008.97;5061868;28;20039;-93
2023/09/09 11:01:46;;;;;;;9.60;5.38;;;;;;;24.49;93.63;101007.00;5044474;28;20116;-93
2023/09/09 11:04:20;;;;;;;8.95;4.93;;;;;;;24.34;94.95;101006.81;5063677;28;20033;-92
2023/09/09 11:07:05;;;;;;;8.50;5.38;;;;;;;24.12;97.06;101013.22;5045063;28;20091;-93
2023/09/09 11:09:31;;;;;;;9.85;5.50;;;;;;;23.92;98.73;101016.63;5061059;28;20037;-92